CheckWX is a tool to help pilots better visualize weather data.  It is not intended as a substitute for an official pre-flight weather briefing.

12:42:22 UTC

FYWE TAF
Eros Airport
Windhoek, Namibia
TAF FYWE 201100Z 2012/2021 35010KT CAVOK BECMG 2016/2018 23006KT

May-20@
12:00 UTC

May-20 @ 12:00 UTC

May-20@
16:00 UTC

May-20 @ 16:00 UTC

TAF FYWE 201100Z 2012/2021 35010KT CAVOK
Wind
  • 350° at 10 KTS
Conditions
No significant weather
Cloud Levels
  • No significant clouds

May-20@
16:00 UTC

May-20 @ 16:00 UTC

May-20@
21:00 UTC

May-20 @ 21:00 UTC

BECMG 2016/2018 23006KT

Becoming

Becoming Conditions expected by Mon, May 20, 2019 @ 18:00 UTC

Wind
  • 230° at 6 KTS
Conditions
No significant weather
Cloud Levels
  • No significant clouds